createdAt,value
2018-03-06T00:01:03.586Z,0.89
2018-03-06T00:06:04.021Z,0.89
2018-03-06T00:11:03.659Z,0.99
2018-03-06T00:16:03.899Z,0.79
2018-03-06T00:21:03.436Z,0.99
2018-03-06T00:26:03.612Z,1.09
2018-03-06T00:31:03.890Z,0.79
2018-03-06T00:36:04.263Z,0.79
2018-03-06T00:41:04.000Z,1.09
2018-03-06T00:46:03.297Z,1.29
2018-03-06T00:51:03.792Z,0.89
2018-03-06T00:56:03.953Z,0.49
2018-03-06T01:01:03.327Z,0.79
2018-03-06T01:06:03.707Z,0.59
2018-03-06T01:11:03.790Z,0.49
2018-03-06T01:16:03.532Z,0.49
2018-03-06T01:21:04.034Z,0.69
2018-03-06T01:26:03.255Z,0.39
2018-03-06T01:31:03.545Z,0.29
2018-03-06T01:36:03.973Z,0.79
2018-03-06T01:41:03.607Z,1.19
2018-03-06T01:46:03.905Z,0.69
2018-03-06T01:51:03.364Z,0.39
2018-03-06T01:56:03.562Z,0.39
2018-03-06T02:01:03.860Z,0.19
2018-03-06T02:06:03.305Z,0.09
2018-03-06T02:11:03.933Z,-0.01
2018-03-06T02:16:03.247Z,-0.31
2018-03-06T02:21:03.691Z,-0.21
2018-03-06T02:26:03.919Z,0.69
2018-03-06T02:31:03.200Z,0.09
2018-03-06T02:36:03.677Z,0.09
2018-03-06T02:41:03.280Z,0.79
2018-03-06T02:46:03.570Z,0.59
2018-03-06T02:51:04.087Z,0.09
2018-03-06T02:56:03.280Z,-0.31
2018-03-06T03:01:03.598Z,0.49
2018-03-06T03:06:04.045Z,0.59
2018-03-06T03:11:03.694Z,0.39
2018-03-06T03:16:03.966Z,-0.01
2018-03-06T03:21:03.420Z,-0.11
2018-03-06T03:26:03.636Z,0.19
2018-03-06T03:31:03.911Z,0.09
2018-03-06T03:36:03.391Z,0.49
2018-03-06T03:41:03.988Z,0.39
2018-03-06T03:46:03.277Z,-0.31
2018-03-06T03:51:03.692Z,-0.31
2018-03-06T03:56:03.911Z,-0.21
2018-03-06T04:01:03.224Z,-0.01
2018-03-06T04:06:03.621Z,0.09
2018-03-06T04:11:03.288Z,0.19
2018-03-06T04:16:03.558Z,-0.01
2018-03-06T04:21:04.005Z,0.09
2018-03-06T04:26:03.242Z,-0.01
2018-03-06T04:31:03.511Z,0.09
2018-03-06T04:36:03.952Z,-0.01
2018-03-06T04:41:03.556Z,-0.01
2018-03-06T04:46:03.829Z,0.09
2018-03-06T04:51:03.304Z,0.59
2018-03-06T04:56:03.470Z,0.59
2018-03-06T05:01:03.778Z,0.69
2018-03-06T05:06:03.220Z,0.39
2018-03-06T05:11:03.913Z,0.99
2018-03-06T05:16:03.139Z,0.79
2018-03-06T05:21:03.615Z,0.99
2018-03-06T05:26:03.449Z,1.09
2018-03-06T05:31:03.734Z,0.79
2018-03-06T05:36:03.216Z,1.09
2018-03-06T05:41:03.814Z,0.99
2018-03-06T05:46:04.073Z,1.19
2018-03-06T05:51:03.531Z,1.39
2018-03-06T05:56:03.745Z,1.19
2018-03-06T06:01:04.070Z,1.29
2018-03-06T06:06:03.493Z,1.49
2018-03-06T06:11:04.093Z,1.09
2018-03-06T06:16:03.361Z,1.29
2018-03-06T06:21:03.890Z,1.39
2018-03-06T06:26:04.111Z,1.49
2018-03-06T06:31:03.374Z,1.69
2018-03-06T06:36:03.833Z,1.89
2018-03-06T06:41:03.387Z,1.79
2018-03-06T06:46:03.685Z,1.49
2018-03-06T06:51:04.146Z,1.49
2018-03-06T06:56:03.320Z,1.29
2018-03-06T07:01:03.616Z,1.69
2018-03-06T07:06:04.078Z,2.09
2018-03-06T07:11:03.668Z,2.09
2018-03-06T07:16:03.964Z,1.99
2018-03-06T07:21:03.393Z,2.39
2018-03-06T07:26:03.657Z,2.49
2018-03-06T07:31:03.942Z,2.79
2018-03-06T07:36:03.941Z,3.09
2018-03-06T07:41:04.019Z,3.39
2018-03-06T07:46:03.291Z,3.49
2018-03-06T07:51:03.730Z,3.89
2018-03-06T07:56:03.975Z,4.09
2018-03-06T08:01:03.242Z,4.29
2018-03-06T08:06:03.752Z,4.49
2018-03-06T08:11:03.322Z,4.59
2018-03-06T08:16:03.599Z,4.79
2018-03-06T08:21:04.107Z,5.09
2018-03-06T08:26:03.316Z,5.29
2018-03-06T08:31:03.611Z,5.39
2018-03-06T08:36:04.064Z,5.29
2018-03-06T08:41:03.638Z,5.29
2018-03-06T08:46:03.916Z,5.39
2018-03-06T08:51:03.369Z,5.69
2018-03-06T08:56:03.604Z,5.99
2018-03-06T09:01:03.884Z,6.09
2018-03-06T09:06:03.351Z,6.19
2018-03-06T09:11:03.921Z,6.29
2018-03-06T09:16:03.196Z,6.49
2018-03-06T09:21:03.704Z,6.59
2018-03-06T09:26:03.925Z,7.19
2018-03-06T09:31:03.195Z,7.59
2018-03-06T09:36:03.640Z,7.89
2018-03-06T09:41:03.233Z,8.49
2018-03-06T09:46:03.500Z,8.69
2018-03-06T09:51:04.000Z,8.79
2018-03-06T09:56:03.216Z,9.09
2018-03-06T10:01:03.467Z,9.39
2018-03-06T10:06:03.925Z,9.59
2018-03-06T10:11:03.512Z,9.89
2018-03-06T10:16:03.785Z,9.99
2018-03-06T10:21:03.235Z,9.99
2018-03-06T10:26:03.462Z,10.19
2018-03-06T10:31:03.787Z,10.58
2018-03-06T10:36:03.260Z,10.58
2018-03-06T10:41:03.833Z,10.61
2018-03-06T10:46:04.115Z,10.88
2018-03-06T10:51:03.553Z,10.98
2018-03-06T10:56:03.773Z,11.06
2018-03-06T11:01:04.079Z,11.21
2018-03-06T11:06:03.536Z,11.18
2018-03-06T11:11:04.120Z,11.27
2018-03-06T11:16:03.460Z,11.45
2018-03-06T11:21:03.853Z,11.78
2018-03-06T11:26:04.122Z,11.89
2018-03-06T11:31:03.438Z,12.30
2018-03-06T11:36:03.889Z,12.08
2018-03-06T11:41:03.473Z,12.39
2018-03-06T11:46:03.741Z,12.41
2018-03-06T11:51:04.839Z,12.60
2018-03-06T11:56:04.054Z,12.33
2018-03-06T12:01:04.357Z,12.70
2018-03-06T12:06:04.814Z,12.79
2018-03-06T12:11:04.396Z,12.57
2018-03-06T12:16:04.704Z,12.83
2018-03-06T12:21:04.194Z,12.72
2018-03-06T12:26:04.415Z,12.72
2018-03-06T12:31:04.712Z,13.00
2018-03-06T12:36:04.317Z,13.16
2018-03-06T12:41:04.827Z,13.35
2018-03-06T12:46:04.048Z,12.90
2018-03-06T12:51:04.483Z,12.90
2018-03-06T12:56:04.678Z,12.90
2018-03-06T13:01:03.963Z,13.05
2018-03-06T13:06:03.761Z,13.42
2018-03-06T13:11:03.330Z,13.52
2018-03-06T13:16:03.602Z,13.52
2018-03-06T13:21:04.118Z,13.68
2018-03-06T13:26:03.318Z,13.42
2018-03-06T13:31:03.637Z,13.27
2018-03-06T13:36:04.132Z,13.62
2018-03-06T13:41:06.265Z,13.66
2018-03-06T13:46:06.001Z,13.37
2018-03-06T13:51:03.389Z,13.11
2018-03-06T13:56:03.604Z,13.11
2018-03-06T14:01:04.221Z,13.11
2018-03-06T14:06:03.635Z,13.51
2018-03-06T14:11:03.876Z,13.56
2018-03-06T14:16:03.166Z,13.57
2018-03-06T14:21:03.652Z,13.37
2018-03-06T14:26:03.880Z,13.20
2018-03-06T14:31:03.184Z,13.11
2018-03-06T14:36:03.602Z,13.11
2018-03-06T14:41:03.209Z,13.11
2018-03-06T14:46:03.485Z,13.66
2018-03-06T14:51:03.893Z,13.18
2018-03-06T14:56:03.139Z,13.10
2018-03-06T15:01:03.420Z,13.31
2018-03-06T15:06:03.865Z,13.07
2018-03-06T15:11:03.457Z,13.03
2018-03-06T15:16:03.740Z,13.10
2018-03-06T15:21:03.297Z,13.10
2018-03-06T15:26:03.437Z,13.10
2018-03-06T15:31:03.682Z,12.94
2018-03-06T15:36:04.175Z,12.95
2018-03-06T15:41:03.807Z,12.72
2018-03-06T15:46:04.106Z,12.89
2018-03-06T15:51:03.518Z,12.83
2018-03-06T15:56:03.749Z,12.83
2018-03-06T16:01:04.045Z,12.75
2018-03-06T16:06:03.503Z,12.84
2018-03-06T16:11:04.096Z,12.70
2018-03-06T16:16:03.414Z,12.55
2018-03-06T16:21:03.884Z,12.49
2018-03-06T16:26:04.046Z,12.47
2018-03-06T16:31:03.323Z,12.47
2018-03-06T16:36:03.842Z,12.36
2018-03-06T16:41:03.379Z,12.26
2018-03-06T16:46:03.662Z,12.29
2018-03-06T16:51:04.083Z,12.25
2018-03-06T16:56:03.337Z,12.12
2018-03-06T17:01:03.678Z,12.07
2018-03-06T17:06:04.048Z,11.78
2018-03-06T17:11:03.701Z,11.58
2018-03-06T17:16:11.832Z,11.58
2018-03-06T17:21:03.812Z,11.58
2018-03-06T17:26:04.060Z,11.08
2018-03-06T17:31:03.355Z,11.08
2018-03-06T17:36:03.826Z,11.18
2018-03-06T17:41:03.841Z,10.98
2018-03-06T17:46:04.066Z,10.88
2018-03-06T17:51:03.537Z,10.78
2018-03-06T17:56:03.781Z,10.58
2018-03-06T18:01:04.020Z,10.68
2018-03-06T18:06:03.460Z,10.58
2018-03-06T18:11:04.109Z,10.58
2018-03-06T18:16:03.371Z,10.29
2018-03-06T18:21:03.877Z,10.19
2018-03-06T18:26:04.079Z,10.09
2018-03-06T18:31:03.374Z,10.09
2018-03-06T18:36:03.827Z,10.09
2018-03-06T18:41:03.389Z,10.09
2018-03-06T18:46:04.004Z,9.79
2018-03-06T18:51:04.282Z,9.79
2018-03-06T18:56:03.652Z,9.69
2018-03-06T19:01:03.997Z,9.59
2018-03-06T19:06:04.340Z,9.49
2018-03-06T19:11:03.805Z,9.49
2018-03-06T19:16:04.112Z,9.49
2018-03-06T19:21:03.726Z,9.39
2018-03-06T19:26:04.054Z,9.29
2018-03-06T19:31:04.171Z,9.49
2018-03-06T19:36:03.484Z,9.39
2018-03-06T19:41:04.526Z,9.39
2018-03-06T19:46:03.369Z,9.19
2018-03-06T19:51:03.865Z,8.99
2018-03-06T19:56:04.042Z,9.09
2018-03-06T20:01:03.298Z,9.09
2018-03-06T20:06:04.256Z,9.19
2018-03-06T20:11:03.317Z,9.39
2018-03-06T20:16:04.055Z,9.39
2018-03-06T20:21:04.921Z,9.39
2018-03-06T20:26:03.530Z,9.29
2018-03-06T20:31:03.770Z,9.39
2018-03-06T20:36:04.146Z,9.29
2018-03-06T20:41:03.850Z,9.29
2018-03-06T20:46:04.555Z,9.19
2018-03-06T20:51:03.544Z,9.19
2018-03-06T20:56:03.751Z,9.09
2018-03-06T21:01:03.980Z,8.89
2018-03-06T21:06:04.501Z,8.89
2018-03-06T21:11:04.120Z,8.69
2018-03-06T21:16:03.305Z,8.39
2018-03-06T21:21:03.778Z,8.39
2018-03-06T21:26:03.993Z,8.59
2018-03-06T21:31:03.233Z,8.59
2018-03-06T21:36:03.830Z,8.49
2018-03-06T21:41:03.311Z,8.69
2018-03-06T21:46:03.857Z,8.69
2018-03-06T21:51:03.993Z,8.69
2018-03-06T21:56:03.247Z,8.39
2018-03-06T22:01:03.588Z,8.19
2018-03-06T22:06:04.569Z,8.09
2018-03-06T22:11:03.760Z,8.09
2018-03-06T22:16:03.955Z,8.39
2018-03-06T22:21:03.374Z,8.29
2018-03-06T22:26:03.629Z,7.89
2018-03-06T22:31:04.012Z,7.89
2018-03-06T22:36:03.302Z,7.79
2018-03-06T22:41:04.042Z,7.89
2018-03-06T22:46:03.267Z,7.99
2018-03-06T22:51:03.645Z,7.59
2018-03-06T22:56:03.892Z,7.49
2018-03-06T23:01:03.151Z,7.59
2018-03-06T23:06:03.596Z,7.39
2018-03-06T23:11:03.250Z,7.19
2018-03-06T23:16:03.488Z,7.09
2018-03-06T23:21:03.950Z,7.49
2018-03-06T23:26:03.195Z,7.49
2018-03-06T23:31:03.435Z,7.89
2018-03-06T23:36:03.893Z,7.59
2018-03-06T23:41:03.499Z,7.49
2018-03-06T23:46:04.264Z,7.29
2018-03-06T23:51:03.207Z,7.19
2018-03-06T23:56:03.450Z,7.29
